Owatonna, MN

10:41 AM CDT on June 23, 2017 (GMT -0500)
Owatonna Degner Regional

Weather History for KOWA - November, 2012

Change the Weather History Date:

Tuesday, November 13, 2012

  Actual Average Record
Temperature  
Mean Temperature 32 °F -  
Max Temperature 44 °F 40 °F 71 °F (1999)
Min Temperature 19 °F 24 °F -5 °F (1986)
Degree Days  
Heating Degree Days 34    
Moisture  
Dew Point 18 °F    
Average Humidity 54    
Maximum Humidity 74    
Minimum Humidity 34    
Precipitation  
Precipitation 0.00 in - - ()
Sea Level Pressure  
Sea Level Pressure 30.30 in    
Wind  
Wind Speed 9 mph (South)    
Max Wind Speed 16 mph    
Max Gust Speed 22 mph    
Visibility 10 miles    
Events      
Averages and records for this station are not official NWS values.
T = Trace of Precipitation, MM = Missing Value Source: NWS Daily Summary

Daily Weather History Graph

Daily Weather History Graph

Search for Another Location

Airport or City:

Trip Planner

Search our weather history database for the weather conditions in past years. The results will help you decide how hot, cold, wet, or windy it might be!

Date:

Astronomy

Nov. 13, 2012 Rise Set
Actual Time 7:06 AM CST 4:47 PM CST
Civil Twilight 6:35 AM CST 5:19 PM CST
Nautical Twilight 6:00 AM CST 5:53 PM CST
Astronomical Twilight 5:26 AM CST 6:28 PM CST
Moon 6:45 AM CST (11/13) 4:40 PM CST (11/13)
Length of Visible Light 10h 43m
Length of Day
9h 41m
Waning Crescent, 0% of the Moon is Illuminated
Nov 13
Waning Crescent
Nov 13
New
Nov 20
First Quarter
Nov 28
Full
Dec 6
Last Quarter

Hourly Weather History & Observations

Time (CST) Temp. Windchill Dew Point Humidity Pressure Visibility Wind Dir Wind Speed Gust Speed Precip Events Conditions
12:13 AM 21.2 °F 12.6 °F 12.2 °F 68% 30.29 in 10.0 mi SW 6.9 mph - N/A   Clear
12:34 AM 21.2 °F 12.6 °F 12.2 °F 68% 30.29 in 10.0 mi SW 6.9 mph - N/A   Clear
12:53 AM 21.2 °F 12.6 °F 12.2 °F 68% 30.29 in 10.0 mi WSW 6.9 mph - N/A   Clear
1:14 AM 21.2 °F 12.6 °F 12.2 °F 68% 30.30 in 10.0 mi WSW 6.9 mph - N/A   Clear
1:34 AM 21.2 °F 12.6 °F 12.2 °F 68% 30.30 in 10.0 mi WSW 6.9 mph - N/A   Clear
1:53 AM 19.4 °F 12.8 °F 12.2 °F 74% 30.29 in 10.0 mi WSW 4.6 mph - N/A   Clear
2:13 AM 19.4 °F 11.5 °F 12.2 °F 74% 30.30 in 10.0 mi SW 5.8 mph - N/A   Clear
2:34 AM 19.4 °F - 10.4 °F 68% 30.30 in 10.0 mi Calm Calm - N/A   Clear
2:54 AM 19.4 °F - 10.4 °F 68% 30.31 in 10.0 mi Calm Calm - N/A   Clear
3:34 AM 19.4 °F 10.4 °F 10.4 °F 68% 30.30 in 10.0 mi SSW 6.9 mph - N/A   Clear
3:53 AM 21.2 °F 12.6 °F 10.4 °F 63% 30.31 in 10.0 mi South 6.9 mph - N/A   Clear
4:13 AM 21.2 °F 10.9 °F 12.2 °F 68% 30.31 in 10.0 mi South 9.2 mph - N/A   Clear
4:33 AM 21.2 °F 12.6 °F 10.4 °F 63% 30.31 in 10.0 mi South 6.9 mph - N/A   Clear
4:54 AM 21.2 °F - 10.4 °F 63% 30.32 in 10.0 mi North - - N/A   Clear
5:14 AM 21.2 °F 11.7 °F 10.4 °F 63% 30.32 in 10.0 mi South 8.1 mph - N/A   Clear
5:34 AM 21.2 °F 11.7 °F 10.4 °F 63% 30.32 in 10.0 mi South 8.1 mph - N/A   Clear
6:14 AM 21.2 °F 13.6 °F 10.4 °F 63% 30.33 in 10.0 mi South 5.8 mph - N/A   Clear
6:33 AM 21.2 °F 12.6 °F 12.2 °F 68% 30.33 in 10.0 mi South 6.9 mph - N/A   Clear
6:53 AM 21.2 °F 11.7 °F 10.4 °F 63% 30.34 in 10.0 mi South 8.1 mph - N/A   Clear
7:14 AM 21.2 °F 11.7 °F 12.2 °F 68% 30.34 in 10.0 mi SSE 8.1 mph - N/A   Clear
7:33 AM 21.2 °F 10.9 °F 12.2 °F 68% 30.34 in 10.0 mi SSE 9.2 mph - N/A   Clear
7:54 AM 24.8 °F 16.1 °F 12.2 °F 59% 30.34 in 10.0 mi SSE 8.1 mph - N/A   Clear
8:13 AM 26.6 °F 16.8 °F 12.2 °F 55% 30.34 in 10.0 mi South 10.4 mph - N/A   Clear
8:33 AM 26.6 °F 17.5 °F 14.0 °F 59% 30.34 in 10.0 mi SSE 9.2 mph - N/A   Clear
8:53 AM 28.4 °F 18.5 °F 15.8 °F 59% 30.35 in 10.0 mi SSE 11.5 mph - N/A   Clear
9:13 AM 30.2 °F 22.6 °F 15.8 °F 55% 30.35 in 10.0 mi SSE 8.1 mph - N/A   Clear
9:33 AM 32.0 °F 23.6 °F 17.6 °F 55% 30.35 in 10.0 mi South 10.4 mph - N/A   Clear
9:53 AM 33.8 °F 25.8 °F 17.6 °F 52% 30.34 in 10.0 mi South 10.4 mph - N/A   Clear
10:13 AM 35.6 °F 28.0 °F 17.6 °F 48% 30.34 in 10.0 mi South 10.4 mph - N/A   Clear
10:33 AM 35.6 °F 29.2 °F 17.6 °F 48% 30.34 in 10.0 mi South 8.1 mph - N/A   Clear
10:53 AM 37.4 °F 30.3 °F 19.4 °F 48% 30.34 in 10.0 mi South 10.4 mph - N/A   Clear
11:14 AM 39.2 °F 32.5 °F 19.4 °F 45% 30.33 in 10.0 mi South 10.4 mph - N/A   Clear
11:34 AM 41.0 °F 34.3 °F 19.4 °F 42% 30.33 in 10.0 mi South 11.5 mph - N/A   Clear
11:54 AM 42.8 °F 37.5 °F 21.2 °F 42% 30.32 in 10.0 mi South 9.2 mph - N/A   Clear
12:13 PM 42.8 °F 36.6 °F 19.4 °F 39% 30.31 in 10.0 mi South 11.5 mph - N/A   Clear
12:33 PM 44.6 °F 38.4 °F 19.4 °F 37% 30.31 in 10.0 mi SSW 12.7 mph - N/A   Clear
12:53 PM 44.6 °F 38.4 °F 19.4 °F 37% 30.30 in 10.0 mi South 12.7 mph - N/A   Clear
1:14 PM 44.6 °F 38.8 °F 19.4 °F 37% 30.30 in 10.0 mi South 11.5 mph - N/A   Clear
1:34 PM 44.6 °F 39.2 °F 19.4 °F 37% 30.30 in 10.0 mi South 10.4 mph - N/A   Clear
1:54 PM 44.6 °F 39.2 °F 19.4 °F 37% 30.29 in 10.0 mi South 10.4 mph - N/A   Clear
2:14 PM 44.6 °F 39.2 °F 19.4 °F 37% 30.29 in 10.0 mi South 10.4 mph - N/A   Clear
2:33 PM 44.6 °F 39.2 °F 17.6 °F 34% 30.28 in 10.0 mi South 10.4 mph - N/A   Clear
2:53 PM 44.6 °F 39.2 °F 19.4 °F 37% 30.28 in 10.0 mi South 10.4 mph - N/A   Clear
3:14 PM 44.6 °F 38.4 °F 21.2 °F 39% 30.28 in 10.0 mi SSE 12.7 mph - N/A   Clear
3:34 PM 44.6 °F 39.2 °F 21.2 °F 39% 30.28 in 10.0 mi SSE 10.4 mph - N/A   Clear
3:53 PM 42.8 °F 36.6 °F 21.2 °F 42% 30.28 in 10.0 mi SSE 11.5 mph - N/A   Clear
4:14 PM 42.8 °F 37.0 °F 23.0 °F 46% 30.28 in 10.0 mi SSE 10.4 mph - N/A   Clear
4:34 PM 42.8 °F 36.6 °F 23.0 °F 46% 30.28 in 10.0 mi SSE 11.5 mph - N/A   Clear
4:53 PM 41.0 °F 34.7 °F 23.0 °F 49% 30.27 in 10.0 mi SSE 10.4 mph - N/A   Clear
5:13 PM 39.2 °F 32.5 °F 24.8 °F 56% 30.27 in 10.0 mi SSE 10.4 mph - N/A   Clear
5:33 PM 39.2 °F 32.5 °F 24.8 °F 56% 30.27 in 10.0 mi SSE 10.4 mph 17.3 mph N/A   Clear
5:53 PM 39.2 °F 32.0 °F 24.8 °F 56% 30.27 in 10.0 mi SSE 11.5 mph - N/A   Clear
6:14 PM 39.2 °F 31.6 °F 24.8 °F 56% 30.27 in 10.0 mi SSE 12.7 mph - N/A   Clear
6:33 PM 41.0 °F 33.9 °F 23.0 °F 49% 30.27 in 10.0 mi SSE 12.7 mph - N/A   Scattered Clouds
6:54 PM 41.0 °F 33.9 °F 23.0 °F 49% 30.27 in 10.0 mi SSE 12.7 mph - N/A   Scattered Clouds
7:14 PM 41.0 °F 33.5 °F 23.0 °F 49% 30.27 in 10.0 mi SSE 13.8 mph - N/A   Mostly Cloudy
7:34 PM 41.0 °F 33.5 °F 23.0 °F 49% 30.27 in 10.0 mi SSE 13.8 mph - N/A   Mostly Cloudy
7:54 PM 39.2 °F 32.0 °F 23.0 °F 52% 30.28 in 10.0 mi SSE 11.5 mph - N/A   Mostly Cloudy
8:14 PM 41.0 °F 33.9 °F 23.0 °F 49% 30.28 in 10.0 mi SSE 12.7 mph 17.3 mph N/A   Mostly Cloudy
8:34 PM 41.0 °F 34.3 °F 23.0 °F 49% 30.28 in 10.0 mi SSE 11.5 mph - N/A   Mostly Cloudy
8:53 PM 39.2 °F 32.5 °F 23.0 °F 52% 30.29 in 10.0 mi SSE 10.4 mph - N/A   Mostly Cloudy
9:14 PM 39.2 °F 31.2 °F 23.0 °F 52% 30.29 in 10.0 mi SSE 13.8 mph 18.4 mph N/A   Scattered Clouds
9:34 PM 39.2 °F 30.8 °F 23.0 °F 52% 30.28 in 10.0 mi SSE 15.0 mph - N/A   Scattered Clouds
9:54 PM 39.2 °F 30.5 °F 23.0 °F 52% 30.28 in 10.0 mi SSE 16.1 mph 20.7 mph N/A   Mostly Cloudy
10:14 PM 39.2 °F 30.8 °F 23.0 °F 52% 30.28 in 10.0 mi SSE 15.0 mph - N/A   Mostly Cloudy
10:34 PM 39.2 °F 30.8 °F 23.0 °F 52% 30.28 in 10.0 mi SSE 15.0 mph 18.4 mph N/A   Mostly Cloudy
10:53 PM 39.2 °F 30.5 °F 23.0 °F 52% 30.27 in 10.0 mi SSE 16.1 mph 19.6 mph N/A   Mostly Cloudy
11:14 PM 39.2 °F 31.2 °F 24.8 °F 56% 30.26 in 10.0 mi SSE 13.8 mph - N/A   Mostly Cloudy
11:34 PM 39.2 °F 30.8 °F 24.8 °F 56% 30.26 in 10.0 mi SSE 15.0 mph - N/A   Overcast
11:54 PM 39.2 °F 30.5 °F 24.8 °F 56% 30.26 in 10.0 mi SSE 16.1 mph 21.9 mph N/A   Mostly Cloudy